Brookston, Minnesota
Current Conditions -  °F | °C
As of 8:36 PM on Friday 24 Oct 2014 (Local Time) from KCOQ Reporting Station
Clear Clear  
Wind Chill: 57°   Ceiling: Unl
Heat Index: 57°   Visibility: 10mi
Dew Point: 48°   Wind: 8mph
Humidity: 72%   Direction: 210°SSW
Pressure: 29.78"   Gusts: NA
Location:  46.87°N, 92.6°W
Report Text: KCOQ 250136Z AUTO 21007KT 10SM CLR 14/09 A2978 RMK AO2
Loading
Personal Weather Stations






























Interactive Weather Map
Tropical Storm Tracking
New forecast layout! Learn more

10-Day Weather Forecast

Advertisements
Track Severe Weather on mobile